Time;durP1;ratioP1;P1;durP2;ratioP2;P2;SDS_P1;SDS_P2;PMS_P1;PMS_P2;Temp;Humidity;BMP_temperature;BMP_pressure;BME280_temperature;BME280_humidity;BME280_pressure;Samples;Min_cycle;Max_cycle;Signal;HPM_P1;HPM_P2
2023/07/27 00:01:20;;;;;;;;;;;;;;;;;;2063110;28;19968;-72
2023/07/27 00:02:40;;;;;;;;;;;;;;;;;;2072227;28;19976;-73
2023/07/27 00:04:01;;;;;;;;;;;;;;;;;;2066703;28;20008;-73
2023/07/27 00:05:22;;;;;;;;;;;;;;;;;;2071077;28;20288;-72
2023/07/27 00:06:42;;;;;;;;;;;;;;;;;;2066210;28;19910;-73
2023/07/27 00:08:03;;;;;;;;;;;;;;;;;;2064806;28;19905;-72
2023/07/27 00:09:24;;;;;;;;;;;;;;;;;;2070549;28;19913;-72
2023/07/27 00:10:45;;;;;;;;;;;;;;;;;;2073280;28;19912;-72
2023/07/27 00:12:05;;;;;;;;;;;;;;;;;;2058758;28;19906;-72
2023/07/27 00:13:26;;;;;;;;;;;;;;;;;;2063223;28;19916;-72
2023/07/27 00:14:47;;;;;;;;;;;;;;;;;;2066175;28;20032;-72
2023/07/27 00:16:07;;;;;;;;;;;;;;;;;;2073497;28;19913;-73
2023/07/27 00:17:28;;;;;;;;;;;;;;;;;;2066301;28;19960;-73
2023/07/27 00:18:49;;;;;;;;;;;;;;;;;;2065552;28;19913;-72
2023/07/27 00:20:10;;;;;;;;;;;;;;;;;;2065386;28;19906;-72
2023/07/27 00:21:30;;;;;;;;;;;;;;;;;;2056273;28;19910;-72
2023/07/27 00:22:51;;;;;;;;;;;;;;;;;;2065194;28;19985;-72
2023/07/27 00:24:12;;;;;;;;;;;;;;;;;;2065461;28;19910;-72
2023/07/27 00:25:35;;;;;;;;;;;;;;;;;;2070785;28;19917;-72
2023/07/27 00:26:56;;;;;;;;;;;;;;;;;;2072073;28;19905;-72
2023/07/27 00:28:17;;;;;;;;;;;;;;;;;;2078517;28;19905;-72
2023/07/27 00:29:38;;;;;;;;;;;;;;;;;;2081537;28;19905;-72
2023/07/27 00:30:58;;;;;;;;;;;;;;;;;;2074075;28;19905;-72
2023/07/27 00:32:19;;;;;;;;;;;;;;;;;;2072529;28;20319;-72
2023/07/27 00:33:40;;;;;;;;;;;;;;;;;;2065774;28;19906;-73
2023/07/27 00:35:00;;;;;;;;;;;;;;;;;;2065518;28;19914;-73
2023/07/27 00:36:21;;;;;;;;;;;;;;;;;;2070631;28;19917;-73
2023/07/27 00:37:42;;;;;;;;;;;;;;;;;;2078480;28;19913;-73
2023/07/27 00:39:02;;;;;;;;;;;;;;;;;;2082402;28;19909;-73
2023/07/27 00:40:23;;;;;;;;;;;;;;;;;;2082255;28;20273;-73
2023/07/27 00:41:44;;;;;;;;;;;;;;;;;;2066255;28;19910;-72
2023/07/27 00:43:04;;;;;;;;;;;;;;;;;;2066388;28;20365;-72
2023/07/27 00:44:25;;;;;;;;;;;;;;;;;;2065995;28;19910;-72
2023/07/27 00:45:46;;;;;;;;;;;;;;;;;;2057962;28;20380;-72
2023/07/27 00:47:06;;;;;;;;;;;;;;;;;;2062855;28;19916;-73
2023/07/27 00:48:27;;;;;;;;;;;;;;;;;;2073195;28;20280;-73
2023/07/27 00:49:48;;;;;;;;;;;;;;;;;;2058286;28;19957;-72
2023/07/27 00:51:08;;;;;;;;;;;;;;;;;;2063814;28;19905;-73
2023/07/27 00:52:29;;;;;;;;;;;;;;;;;;2066621;28;19906;-73
2023/07/27 00:53:50;;;;;;;;;;;;;;;;;;2065843;28;19913;-73
2023/07/27 00:55:11;;;;;;;;;;;;;;;;;;2078076;28;19917;-72
2023/07/27 00:56:31;;;;;;;;;;;;;;;;;;2083111;28;19905;-72
2023/07/27 00:57:52;;;;;;;;;;;;;;;;;;2072788;28;20336;-73
2023/07/27 00:59:13;;;;;;;;;;;;;;;;;;2062850;28;19910;-72
2023/07/27 01:00:33;;;;;;;;;;;;;;;;;;2065867;28;19906;-73
2023/07/27 01:01:54;;;;;;;;;;;;;;;;;;2058217;28;19937;-73
2023/07/27 01:03:15;;;;;;;;;;;;;;;;;;2063251;28;19906;-73
2023/07/27 01:04:35;;;;;;;;;;;;;;;;;;2058631;28;19914;-73
2023/07/27 01:05:56;;;;;;;;;;;;;;;;;;2059274;28;19922;-72
2023/07/27 01:07:17;;;;;;;;;;;;;;;;;;2071472;28;19905;-73
2023/07/27 01:08:38;;;;;;;;;;;;;;;;;;2073256;28;20387;-73
2023/07/27 01:09:58;;;;;;;;;;;;;;;;;;2065105;28;19913;-73
2023/07/27 01:11:19;;;;;;;;;;;;;;;;;;2062831;28;20242;-72
2023/07/27 01:12:40;;;;;;;;;;;;;;;;;;2064163;28;19918;-73
2023/07/27 01:14:00;;;;;;;;;;;;;;;;;;2070498;28;19906;-73
2023/07/27 01:15:21;;;;;;;;;;;;;;;;;;2078384;28;19967;-73
2023/07/27 01:16:42;;;;;;;;;;;;;;;;;;2082300;28;19921;-73
2023/07/27 01:18:02;;;;;;;;;;;;;;;;;;2081816;28;20283;-73
2023/07/27 01:19:23;;;;;;;;;;;;;;;;;;2065349;28;19910;-73
2023/07/27 01:20:46;;;;;;;;;;;;;;;;;;2068479;28;19913;-73
2023/07/27 01:22:07;;;;;;;;;;;;;;;;;;2073723;28;20284;-73
2023/07/27 01:23:27;;;;;;;;;;;;;;;;;;2073222;28;19906;-73
2023/07/27 01:24:48;;;;;;;;;;;;;;;;;;2063492;28;19909;-75
2023/07/27 01:26:09;;;;;;;;;;;;;;;;;;2062697;28;19906;-73
2023/07/27 01:27:29;;;;;;;;;;;;;;;;;;2057939;28;19913;-73
2023/07/27 01:28:50;;;;;;;;;;;;;;;;;;2054645;28;20362;-73
2023/07/27 01:30:11;;;;;;;;;;;;;;;;;;2070638;28;19905;-74
2023/07/27 01:31:31;;;;;;;;;;;;;;;;;;2080151;28;19967;-73
2023/07/27 01:32:52;;;;;;;;;;;;;;;;;;2067656;28;19909;-74
2023/07/27 01:34:13;;;;;;;;;;;;;;;;;;2070518;28;19905;-73
2023/07/27 01:35:34;;;;;;;;;;;;;;;;;;2072679;28;19914;-74
2023/07/27 01:36:54;;;;;;;;;;;;;;;;;;2063538;28;20426;-74
2023/07/27 01:38:15;;;;;;;;;;;;;;;;;;2071201;28;20376;-74
2023/07/27 01:39:36;;;;;;;;;;;;;;;;;;2073011;28;20237;-73
2023/07/27 01:40:56;;;;;;;;;;;;;;;;;;2065498;28;20402;-73
2023/07/27 01:42:17;;;;;;;;;;;;;;;;;;2065223;28;19913;-74
2023/07/27 01:43:38;;;;;;;;;;;;;;;;;;2056914;28;19906;-74
2023/07/27 01:44:58;;;;;;;;;;;;;;;;;;2060741;28;19926;-74
2023/07/27 01:46:19;;;;;;;;;;;;;;;;;;2071459;28;19914;-74
2023/07/27 01:47:40;;;;;;;;;;;;;;;;;;2073303;28;20253;-73
2023/07/27 01:49:01;;;;;;;;;;;;;;;;;;2070327;28;20399;-74
2023/07/27 01:50:21;;;;;;;;;;;;;;;;;;2072984;28;20361;-74
2023/07/27 01:51:42;;;;;;;;;;;;;;;;;;2073600;28;19909;-74
2023/07/27 01:53:03;;;;;;;;;;;;;;;;;;2073557;28;19913;-73
2023/07/27 01:54:23;;;;;;;;;;;;;;;;;;2073418;28;19913;-73
2023/07/27 01:55:44;;;;;;;;;;;;;;;;;;2067086;28;20424;-73
2023/07/27 01:57:05;;;;;;;;;;;;;;;;;;2081141;28;19912;-73
2023/07/27 01:58:26;;;;;;;;;;;;;;;;;;2069277;28;19913;-74
2023/07/27 01:59:47;;;;;;;;;;;;;;;;;;2062026;28;19905;-74
2023/07/27 02:01:07;;;;;;;;;;;;;;;;;;2061362;28;19905;-74
2023/07/27 02:02:28;;;;;;;;;;;;;;;;;;2068149;28;19909;-74
2023/07/27 02:03:49;;;;;;;;;;;;;;;;;;2065809;28;19905;-74
2023/07/27 02:05:09;;;;;;;;;;;;;;;;;;2063878;28;19913;-74
2023/07/27 02:06:30;;;;;;;;;;;;;;;;;;2065192;28;20318;-74
2023/07/27 02:07:51;;;;;;;;;;;;;;;;;;2070768;28;19928;-73
2023/07/27 02:09:11;;;;;;;;;;;;;;;;;;2065493;28;19906;-73
2023/07/27 02:10:32;;;;;;;;;;;;;;;;;;2063063;28;19909;-74
2023/07/27 02:11:53;;;;;;;;;;;;;;;;;;2068741;28;19911;-74
2023/07/27 02:13:13;;;;;;;;;;;;;;;;;;2072346;28;19914;-74
2023/07/27 02:14:34;;;;;;;;;;;;;;;;;;2072991;28;19909;-74
2023/07/27 02:15:55;;;;;;;;;;;;;;;;;;2063813;28;19913;-74
2023/07/27 02:17:15;;;;;;;;;;;;;;;;;;2057562;28;19918;-74
2023/07/27 02:18:36;;;;;;;;;;;;;;;;;;2075396;28;19940;-75
2023/07/27 02:19:57;;;;;;;;;;;;;;;;;;2057081;28;19909;-75
2023/07/27 02:21:17;;;;;;;;;;;;;;;;;;2062452;28;19918;-75
2023/07/27 02:22:39;;;;;;;;;;;;;;;;;;2065034;28;19964;-76
2023/07/27 02:23:59;;;;;;;;;;;;;;;;;;2057317;28;19929;-76
2023/07/27 02:25:20;;;;;;;;;;;;;;;;;;2061903;28;19913;-75
2023/07/27 02:26:41;;;;;;;;;;;;;;;;;;2072917;28;19905;-75
2023/07/27 02:28:01;;;;;;;;;;;;;;;;;;2074107;28;19905;-76
2023/07/27 02:29:22;;;;;;;;;;;;;;;;;;2072585;28;19913;-75
2023/07/27 02:30:43;;;;;;;;;;;;;;;;;;2065546;28;19913;-76
2023/07/27 02:32:03;;;;;;;;;;;;;;;;;;2061773;28;19960;-76
2023/07/27 02:33:24;;;;;;;;;;;;;;;;;;2070833;28;19905;-76
2023/07/27 02:34:45;;;;;;;;;;;;;;;;;;2073533;28;19914;-76
2023/07/27 02:36:05;;;;;;;;;;;;;;;;;;2072177;28;19917;-76
2023/07/27 02:37:26;;;;;;;;;;;;;;;;;;2070033;28;19905;-76
2023/07/27 02:38:47;;;;;;;;;;;;;;;;;;2078360;28;19906;-76
2023/07/27 02:40:08;;;;;;;;;;;;;;;;;;2072670;28;19905;-76
2023/07/27 02:41:29;;;;;;;;;;;;;;;;;;2062797;28;19905;-76
2023/07/27 02:42:49;;;;;;;;;;;;;;;;;;2065200;28;19906;-76
2023/07/27 02:44:10;;;;;;;;;;;;;;;;;;2057030;28;20308;-76
2023/07/27 02:45:31;;;;;;;;;;;;;;;;;;2064784;28;19976;-76
2023/07/27 02:46:51;;;;;;;;;;;;;;;;;;2072076;28;20375;-76
2023/07/27 02:48:12;;;;;;;;;;;;;;;;;;2066289;28;19913;-76
2023/07/27 02:49:33;;;;;;;;;;;;;;;;;;2066194;28;19909;-76
2023/07/27 02:50:53;;;;;;;;;;;;;;;;;;2066791;28;19910;-76
2023/07/27 02:52:14;;;;;;;;;;;;;;;;;;2062040;28;19929;-76
2023/07/27 02:53:35;;;;;;;;;;;;;;;;;;2069867;28;19906;-76
2023/07/27 02:54:55;;;;;;;;;;;;;;;;;;2065089;28;19929;-78
2023/07/27 02:56:16;;;;;;;;;;;;;;;;;;2069967;28;19913;-79
2023/07/27 02:57:37;;;;;;;;;;;;;;;;;;2064029;28;19910;-76
2023/07/27 02:58:58;;;;;;;;;;;;;;;;;;2069395;28;19906;-76
2023/07/27 03:00:18;;;;;;;;;;;;;;;;;;2063894;28;20028;-76
2023/07/27 03:01:39;;;;;;;;;;;;;;;;;;2069667;28;19909;-76
2023/07/27 03:03:02;;;;;;;;;;;;;;;;;;2072395;28;20265;-76
2023/07/27 03:04:23;;;;;;;;;;;;;;;;;;2065888;28;19913;-76
2023/07/27 03:05:44;;;;;;;;;;;;;;;;;;2062809;28;19914;-76
2023/07/27 03:07:04;;;;;;;;;;;;;;;;;;2065435;28;20012;-76
2023/07/27 03:08:25;;;;;;;;;;;;;;;;;;2065430;28;20332;-75
2023/07/27 03:09:46;;;;;;;;;;;;;;;;;;2065461;28;19906;-76
2023/07/27 03:11:06;;;;;;;;;;;;;;;;;;2059058;28;20356;-76
2023/07/27 03:12:27;;;;;;;;;;;;;;;;;;2064505;28;19906;-76
2023/07/27 03:13:48;;;;;;;;;;;;;;;;;;2065443;28;19917;-76
2023/07/27 03:15:08;;;;;;;;;;;;;;;;;;2065389;28;20068;-74
2023/07/27 03:16:29;;;;;;;;;;;;;;;;;;2072684;28;19928;-76
2023/07/27 03:17:50;;;;;;;;;;;;;;;;;;2067694;28;19902;-76
2023/07/27 03:19:11;;;;;;;;;;;;;;;;;;2065112;28;20245;-76
2023/07/27 03:20:31;;;;;;;;;;;;;;;;;;2064920;28;19909;-76
2023/07/27 03:21:52;;;;;;;;;;;;;;;;;;2070232;28;19963;-76
2023/07/27 03:23:13;;;;;;;;;;;;;;;;;;2064174;28;20393;-76
2023/07/27 03:24:33;;;;;;;;;;;;;;;;;;2054004;28;19906;-76
2023/07/27 03:25:54;;;;;;;;;;;;;;;;;;2063415;28;19917;-76
2023/07/27 03:27:15;;;;;;;;;;;;;;;;;;2064629;28;19928;-75
2023/07/27 03:28:35;;;;;;;;;;;;;;;;;;2064996;28;20284;-75
2023/07/27 03:29:56;;;;;;;;;;;;;;;;;;2071848;28;19905;-75
2023/07/27 03:31:17;;;;;;;;;;;;;;;;;;2080972;28;19909;-75
2023/07/27 03:32:37;;;;;;;;;;;;;;;;;;2080988;28;19905;-76
2023/07/27 03:33:58;;;;;;;;;;;;;;;;;;2081022;28;19912;-76
2023/07/27 03:35:19;;;;;;;;;;;;;;;;;;2067384;28;19948;-76
2023/07/27 03:36:40;;;;;;;;;;;;;;;;;;2061808;28;20399;-76
2023/07/27 03:38:00;;;;;;;;;;;;;;;;;;2069756;28;19912;-75
2023/07/27 03:39:21;;;;;;;;;;;;;;;;;;2072299;28;19905;-76
2023/07/27 03:40:42;;;;;;;;;;;;;;;;;;2065321;28;19913;-76
2023/07/27 03:42:02;;;;;;;;;;;;;;;;;;2067983;28;19913;-76
2023/07/27 03:43:23;;;;;;;;;;;;;;;;;;2063627;28;19917;-76
2023/07/27 03:44:44;;;;;;;;;;;;;;;;;;2072353;28;20361;-76
2023/07/27 03:46:04;;;;;;;;;;;;;;;;;;2077944;28;20344;-76
2023/07/27 03:47:25;;;;;;;;;;;;;;;;;;2069628;28;20229;-76
2023/07/27 03:48:46;;;;;;;;;;;;;;;;;;2070250;28;19906;-76
2023/07/27 03:50:06;;;;;;;;;;;;;;;;;;2072935;28;19993;-76
2023/07/27 03:51:27;;;;;;;;;;;;;;;;;;2070263;28;20273;-76
2023/07/27 03:52:48;;;;;;;;;;;;;;;;;;2064695;28;20277;-76
2023/07/27 03:54:09;;;;;;;;;;;;;;;;;;2065280;28;19906;-76
2023/07/27 03:55:29;;;;;;;;;;;;;;;;;;2078795;28;19912;-76
2023/07/27 03:56:50;;;;;;;;;;;;;;;;;;2066423;28;19937;-76
2023/07/27 03:58:11;;;;;;;;;;;;;;;;;;2058109;28;20336;-75
2023/07/27 03:59:32;;;;;;;;;;;;;;;;;;2070445;28;19905;-76
2023/07/27 04:00:52;;;;;;;;;;;;;;;;;;2063516;28;20427;-76
2023/07/27 04:02:13;;;;;;;;;;;;;;;;;;2061218;28;19917;-76
2023/07/27 04:03:34;;;;;;;;;;;;;;;;;;2061798;28;19906;-76
2023/07/27 04:04:54;;;;;;;;;;;;;;;;;;2070333;28;20375;-77
2023/07/27 04:06:15;;;;;;;;;;;;;;;;;;2064307;28;19914;-77
2023/07/27 04:07:36;;;;;;;;;;;;;;;;;;2062914;28;19909;-77
2023/07/27 04:08:56;;;;;;;;;;;;;;;;;;2078347;28;20376;-76
2023/07/27 04:10:17;;;;;;;;;;;;;;;;;;2068578;28;19906;-77
2023/07/27 04:11:38;;;;;;;;;;;;;;;;;;2065528;28;19906;-76
2023/07/27 04:12:59;;;;;;;;;;;;;;;;;;2071163;28;20361;-76
2023/07/27 04:14:19;;;;;;;;;;;;;;;;;;2066687;28;20375;-77
2023/07/27 04:15:40;;;;;;;;;;;;;;;;;;2065345;28;19928;-77
2023/07/27 04:17:01;;;;;;;;;;;;;;;;;;2063803;28;19976;-77
2023/07/27 04:18:21;;;;;;;;;;;;;;;;;;2063781;28;19905;-77
2023/07/27 04:19:42;;;;;;;;;;;;;;;;;;2059195;28;19910;-77
2023/07/27 04:21:03;;;;;;;;;;;;;;;;;;2054551;28;19909;-76
2023/07/27 04:22:23;;;;;;;;;;;;;;;;;;2063328;28;19906;-78
2023/07/27 04:23:44;;;;;;;;;;;;;;;;;;2057441;28;19942;-76
2023/07/27 04:25:05;;;;;;;;;;;;;;;;;;2063647;28;19938;-77
2023/07/27 04:26:25;;;;;;;;;;;;;;;;;;2080877;28;19913;-77
2023/07/27 04:27:46;;;;;;;;;;;;;;;;;;2084788;28;19909;-77
2023/07/27 04:29:07;;;;;;;;;;;;;;;;;;2072727;28;19905;-76
2023/07/27 04:30:27;;;;;;;;;;;;;;;;;;2079783;28;19905;-77
2023/07/27 04:31:48;;;;;;;;;;;;;;;;;;2082238;28;20271;-77
2023/07/27 04:33:09;;;;;;;;;;;;;;;;;;2082170;28;19912;-77
2023/07/27 04:34:29;;;;;;;;;;;;;;;;;;2072882;28;19928;-76
2023/07/27 04:35:50;;;;;;;;;;;;;;;;;;2079814;28;19912;-77
2023/07/27 04:37:11;;;;;;;;;;;;;;;;;;2065660;28;19917;-76
2023/07/27 04:38:31;;;;;;;;;;;;;;;;;;2065410;28;19921;-76
2023/07/27 04:39:52;;;;;;;;;;;;;;;;;;2054703;28;20361;-75
2023/07/27 04:41:13;;;;;;;;;;;;;;;;;;2063963;28;20277;-76
2023/07/27 04:42:34;;;;;;;;;;;;;;;;;;2065865;28;19916;-76
2023/07/27 04:43:57;;;;;;;;;;;;;;;;;;2060685;28;19990;-76
2023/07/27 04:45:18;;;;;;;;;;;;;;;;;;2064153;28;19916;-76
2023/07/27 04:46:39;;;;;;;;;;;;;;;;;;2071256;28;20273;-76
2023/07/27 04:47:59;;;;;;;;;;;;;;;;;;2065606;28;19909;-76
2023/07/27 04:49:20;;;;;;;;;;;;;;;;;;2069812;28;19932;-76
2023/07/27 04:50:41;;;;;;;;;;;;;;;;;;2066646;28;19905;-76
2023/07/27 04:52:01;;;;;;;;;;;;;;;;;;2065532;28;19910;-76
2023/07/27 04:53:22;;;;;;;;;;;;;;;;;;2063947;28;19906;-76
2023/07/27 04:54:43;;;;;;;;;;;;;;;;;;2063941;28;20033;-76
2023/07/27 04:56:03;;;;;;;;;;;;;;;;;;2065465;28;19909;-75
2023/07/27 04:57:24;;;;;;;;;;;;;;;;;;2074755;28;20296;-76
2023/07/27 04:58:45;;;;;;;;;;;;;;;;;;2065357;28;19914;-77
2023/07/27 05:00:06;;;;;;;;;;;;;;;;;;2065427;28;20242;-77
2023/07/27 05:01:26;;;;;;;;;;;;;;;;;;2070910;28;19905;-77
2023/07/27 05:02:47;;;;;;;;;;;;;;;;;;2065219;28;19924;-76
2023/07/27 05:04:08;;;;;;;;;;;;;;;;;;2057802;28;19906;-76
2023/07/27 05:05:28;;;;;;;;;;;;;;;;;;2062592;28;19910;-76
2023/07/27 05:06:49;;;;;;;;;;;;;;;;;;2068854;28;20245;-77
2023/07/27 05:08:10;;;;;;;;;;;;;;;;;;2078495;28;19912;-77
2023/07/27 05:09:30;;;;;;;;;;;;;;;;;;2064249;28;19913;-84
2023/07/27 05:10:51;;;;;;;;;;;;;;;;;;2072203;28;20258;-77
2023/07/27 05:12:12;;;;;;;;;;;;;;;;;;2065080;28;20420;-76
2023/07/27 05:13:33;;;;;;;;;;;;;;;;;;2069619;28;20393;-77
2023/07/27 05:14:53;;;;;;;;;;;;;;;;;;2065737;28;19913;-76
2023/07/27 05:16:14;;;;;;;;;;;;;;;;;;2071346;28;19909;-76
2023/07/27 05:17:35;;;;;;;;;;;;;;;;;;2073254;28;19994;-76
2023/07/27 05:18:57;;;;;;;;;;;;;;;;;;2064121;28;19913;-78
2023/07/27 05:20:18;;;;;;;;;;;;;;;;;;2064113;28;19909;-76
2023/07/27 05:21:38;;;;;;;;;;;;;;;;;;2070514;28;20379;-76
2023/07/27 05:22:59;;;;;;;;;;;;;;;;;;2073762;28;19928;-76
2023/07/27 05:24:20;;;;;;;;;;;;;;;;;;2073791;28;19906;-76
2023/07/27 05:25:41;;;;;;;;;;;;;;;;;;2063744;28;19916;-77
2023/07/27 05:27:01;;;;;;;;;;;;;;;;;;2070710;28;20400;-77
2023/07/27 05:28:22;;;;;;;;;;;;;;;;;;2068141;28;19910;-77
2023/07/27 05:29:43;;;;;;;;;;;;;;;;;;2070506;28;20391;-77
2023/07/27 05:31:03;;;;;;;;;;;;;;;;;;2070288;28;19963;-76
2023/07/27 05:32:24;;;;;;;;;;;;;;;;;;2072885;28;20417;-76
2023/07/27 05:33:45;;;;;;;;;;;;;;;;;;2066036;28;19905;-76
2023/07/27 05:35:05;;;;;;;;;;;;;;;;;;2066000;28;20365;-76
2023/07/27 05:36:26;;;;;;;;;;;;;;;;;;2060611;28;19913;-77
2023/07/27 05:37:47;;;;;;;;;;;;;;;;;;2057331;28;19913;-76
2023/07/27 05:39:08;;;;;;;;;;;;;;;;;;2056853;28;19910;-76
2023/07/27 05:40:28;;;;;;;;;;;;;;;;;;2059653;28;20301;-76
2023/07/27 05:41:49;;;;;;;;;;;;;;;;;;2062281;28;19906;-77
2023/07/27 05:43:10;;;;;;;;;;;;;;;;;;2064025;28;19914;-77
2023/07/27 05:44:31;;;;;;;;;;;;;;;;;;2061110;28;19906;-76
2023/07/27 05:45:51;;;;;;;;;;;;;;;;;;2076035;28;19913;-76
2023/07/27 05:47:13;;;;;;;;;;;;;;;;;;2074482;28;20401;-77
2023/07/27 05:48:34;;;;;;;;;;;;;;;;;;2065714;28;19909;-76
2023/07/27 05:49:55;;;;;;;;;;;;;;;;;;2063539;28;19960;-77
2023/07/27 05:51:16;;;;;;;;;;;;;;;;;;2067917;28;19913;-77
2023/07/27 05:52:36;;;;;;;;;;;;;;;;;;2074224;28;19909;-77
2023/07/27 05:53:57;;;;;;;;;;;;;;;;;;2064666;28;20387;-78
2023/07/27 05:55:18;;;;;;;;;;;;;;;;;;2070717;28;19906;-76
2023/07/27 05:56:40;;;;;;;;;;;;;;;;;;2064611;28;19906;-77
2023/07/27 05:58:01;;;;;;;;;;;;;;;;;;2063263;28;20348;-77
2023/07/27 05:59:22;;;;;;;;;;;;;;;;;;2057839;28;19906;-77
2023/07/27 06:00:42;;;;;;;;;;;;;;;;;;2063798;28;20284;-77
2023/07/27 06:02:03;;;;;;;;;;;;;;;;;;2066036;28;19910;-77
2023/07/27 06:03:24;;;;;;;;;;;;;;;;;;2071264;28;20324;-77
2023/07/27 06:04:44;;;;;;;;;;;;;;;;;;2065733;28;20276;-76
2023/07/27 06:06:05;;;;;;;;;;;;;;;;;;2073024;28;19913;-76
2023/07/27 06:07:26;;;;;;;;;;;;;;;;;;2063978;28;20004;-76
2023/07/27 06:08:47;;;;;;;;;;;;;;;;;;2061418;28;19910;-76
2023/07/27 06:10:08;;;;;;;;;;;;;;;;;;2070610;28;19912;-76
2023/07/27 06:11:29;;;;;;;;;;;;;;;;;;2064470;28;20392;-77
2023/07/27 06:12:49;;;;;;;;;;;;;;;;;;2062796;28;19906;-77
2023/07/27 06:14:10;;;;;;;;;;;;;;;;;;2064842;28;19906;-77
2023/07/27 06:15:31;;;;;;;;;;;;;;;;;;2070371;28;19969;-76
2023/07/27 06:16:52;;;;;;;;;;;;;;;;;;2071903;28;19929;-77
2023/07/27 06:18:12;;;;;;;;;;;;;;;;;;2064939;28;19906;-76
2023/07/27 06:19:33;;;;;;;;;;;;;;;;;;2059884;28;20238;-77
2023/07/27 06:20:54;;;;;;;;;;;;;;;;;;2070079;28;19910;-78
2023/07/27 06:22:14;;;;;;;;;;;;;;;;;;2065284;28;19906;-78
2023/07/27 06:23:35;;;;;;;;;;;;;;;;;;2066052;28;19906;-76
2023/07/27 06:24:56;;;;;;;;;;;;;;;;;;2064713;28;19905;-77
2023/07/27 06:26:16;;;;;;;;;;;;;;;;;;2066657;28;19917;-77
2023/07/27 06:27:37;;;;;;;;;;;;;;;;;;2071773;28;20380;-77
2023/07/27 06:28:58;;;;;;;;;;;;;;;;;;2070680;28;19909;-77
2023/07/27 06:30:19;;;;;;;;;;;;;;;;;;2067473;28;19916;-77
2023/07/27 06:31:39;;;;;;;;;;;;;;;;;;2066326;28;19910;-77
2023/07/27 06:33:00;;;;;;;;;;;;;;;;;;2067482;28;19957;-77
2023/07/27 06:34:21;;;;;;;;;;;;;;;;;;2065836;28;19906;-77
2023/07/27 06:35:41;;;;;;;;;;;;;;;;;;2069703;28;20327;-76
2023/07/27 06:37:02;;;;;;;;;;;;;;;;;;2071512;28;19991;-77
2023/07/27 06:38:23;;;;;;;;;;;;;;;;;;2072559;28;19906;-78
2023/07/27 06:39:43;;;;;;;;;;;;;;;;;;2072813;28;20013;-78
2023/07/27 06:41:05;;;;;;;;;;;;;;;;;;2065228;28;19906;-78
2023/07/27 06:42:25;;;;;;;;;;;;;;;;;;2064798;28;19913;-78
2023/07/27 06:43:46;;;;;;;;;;;;;;;;;;2064128;28;19910;-78
2023/07/27 06:45:07;;;;;;;;;;;;;;;;;;2065157;28;19905;-78
2023/07/27 06:46:28;;;;;;;;;;;;;;;;;;2069770;28;19917;-77
2023/07/27 06:47:49;;;;;;;;;;;;;;;;;;2071788;28;19925;-78
2023/07/27 06:49:10;;;;;;;;;;;;;;;;;;2065615;28;19917;-85
2023/07/27 06:50:31;;;;;;;;;;;;;;;;;;2059740;28;19909;-84
2023/07/27 06:51:52;;;;;;;;;;;;;;;;;;2065537;28;19913;-85
2023/07/27 06:53:12;;;;;;;;;;;;;;;;;;2064619;28;19914;-85
2023/07/27 06:54:33;;;;;;;;;;;;;;;;;;2063887;28;19910;-85
2023/07/27 06:55:54;;;;;;;;;;;;;;;;;;2065848;28;19909;-88
2023/07/27 06:57:15;;;;;;;;;;;;;;;;;;2067770;28;19914;-85
2023/07/27 06:58:35;;;;;;;;;;;;;;;;;;2070944;28;19920;-82
2023/07/27 06:59:56;;;;;;;;;;;;;;;;;;2061684;28;19906;-83
2023/07/27 07:01:17;;;;;;;;;;;;;;;;;;2069786;28;21726;-83
2023/07/27 07:02:37;;;;;;;;;;;;;;;;;;2073959;28;19913;-82
2023/07/27 07:03:58;;;;;;;;;;;;;;;;;;2073667;28;20162;-83
2023/07/27 07:05:19;;;;;;;;;;;;;;;;;;2064937;28;19913;-82
2023/07/27 07:06:40;;;;;;;;;;;;;;;;;;2061994;28;19909;-83
2023/07/27 07:08:01;;;;;;;;;;;;;;;;;;2068872;28;19920;-83
2023/07/27 07:09:21;;;;;;;;;;;;;;;;;;2071998;28;19909;-82
2023/07/27 07:10:42;;;;;;;;;;;;;;;;;;2073198;28;19909;-83
2023/07/27 07:12:03;;;;;;;;;;;;;;;;;;2072083;28;19916;-83
2023/07/27 07:13:24;;;;;;;;;;;;;;;;;;2065784;28;19914;-84
2023/07/27 07:14:45;;;;;;;;;;;;;;;;;;2070668;28;20257;-85
2023/07/27 07:16:05;;;;;;;;;;;;;;;;;;2064029;28;19909;-85
2023/07/27 07:17:26;;;;;;;;;;;;;;;;;;2070168;28;20384;-82
2023/07/27 07:18:47;;;;;;;;;;;;;;;;;;2063392;28;19909;-83
2023/07/27 07:20:08;;;;;;;;;;;;;;;;;;2071433;28;19906;-86
2023/07/27 07:21:29;;;;;;;;;;;;;;;;;;2069268;28;19910;-84
2023/07/27 07:22:50;;;;;;;;;;;;;;;;;;2063110;28;19906;-84
2023/07/27 07:24:10;;;;;;;;;;;;;;;;;;2062610;28;19990;-84
2023/07/27 07:25:31;;;;;;;;;;;;;;;;;;2066342;28;20146;-84
2023/07/27 07:26:52;;;;;;;;;;;;;;;;;;2071327;28;20284;-85
2023/07/27 07:28:12;;;;;;;;;;;;;;;;;;2065236;28;19973;-82
2023/07/27 07:29:33;;;;;;;;;;;;;;;;;;2069199;28;19921;-83
2023/07/27 07:30:54;;;;;;;;;;;;;;;;;;2066417;28;19918;-83
2023/07/27 07:32:15;;;;;;;;;;;;;;;;;;2070001;28;19906;-83
2023/07/27 07:33:35;;;;;;;;;;;;;;;;;;2066028;28;19906;-83
2023/07/27 07:34:56;;;;;;;;;;;;;;;;;;2063307;28;20242;-83
2023/07/27 07:36:17;;;;;;;;;;;;;;;;;;2070113;28;19916;-85
2023/07/27 07:37:37;;;;;;;;;;;;;;;;;;2073498;28;19913;-84
2023/07/27 07:38:58;;;;;;;;;;;;;;;;;;2074545;28;19913;-84
2023/07/27 07:40:23;;;;;;;;;;;;;;;;;;2075166;28;19936;-85
2023/07/27 07:41:44;;;;;;;;;;;;;;;;;;2065966;28;19933;-84
2023/07/27 07:43:05;;;;;;;;;;;;;;;;;;2058693;28;19906;-85
2023/07/27 07:44:25;;;;;;;;;;;;;;;;;;2062783;28;19905;-84
2023/07/27 07:45:46;;;;;;;;;;;;;;;;;;2068099;28;19905;-83
2023/07/27 07:47:07;;;;;;;;;;;;;;;;;;2069076;28;19913;-81
2023/07/27 07:48:27;;;;;;;;;;;;;;;;;;2075170;28;19905;-83
2023/07/27 07:49:48;;;;;;;;;;;;;;;;;;2056329;28;20310;-83
2023/07/27 07:51:09;;;;;;;;;;;;;;;;;;2071947;28;19913;-83
2023/07/27 07:52:29;;;;;;;;;;;;;;;;;;2065770;28;19933;-83
2023/07/27 07:53:50;;;;;;;;;;;;;;;;;;2066069;28;19912;-83
2023/07/27 07:55:11;;;;;;;;;;;;;;;;;;2078266;28;19905;-84
2023/07/27 07:56:32;;;;;;;;;;;;;;;;;;2074520;28;19906;-83
2023/07/27 07:57:52;;;;;;;;;;;;;;;;;;2080782;28;19912;-81
2023/07/27 07:59:13;;;;;;;;;;;;;;;;;;2061907;28;20380;-80
2023/07/27 08:00:34;;;;;;;;;;;;;;;;;;2057537;28;19960;-80
2023/07/27 08:01:55;;;;;;;;;;;;;;;;;;2064220;28;20272;-80
2023/07/27 08:03:15;;;;;;;;;;;;;;;;;;2066501;28;19914;-81
2023/07/27 08:04:36;;;;;;;;;;;;;;;;;;2064022;28;20404;-81
2023/07/27 08:05:57;;;;;;;;;;;;;;;;;;2060432;28;19910;-84
2023/07/27 08:07:18;;;;;;;;;;;;;;;;;;2070529;28;19909;-82
2023/07/27 08:08:38;;;;;;;;;;;;;;;;;;2073993;28;19906;-83
2023/07/27 08:10:01;;;;;;;;;;;;;;;;;;2056614;28;19913;-85
2023/07/27 08:11:22;;;;;;;;;;;;;;;;;;2064414;28;20292;-84
2023/07/27 08:12:43;;;;;;;;;;;;;;;;;;2068759;28;19917;-85
2023/07/27 08:14:03;;;;;;;;;;;;;;;;;;2067769;28;20226;-87
2023/07/27 08:15:24;;;;;;;;;;;;;;;;;;2060660;28;19914;-87
2023/07/27 08:16:45;;;;;;;;;;;;;;;;;;2057950;28;19922;-87
2023/07/27 08:18:06;;;;;;;;;;;;;;;;;;2064398;28;20155;-86
2023/07/27 08:19:26;;;;;;;;;;;;;;;;;;2067299;28;19906;-87
2023/07/27 08:20:47;;;;;;;;;;;;;;;;;;2061607;28;19906;-84
2023/07/27 08:22:08;;;;;;;;;;;;;;;;;;2071176;28;19913;-88
2023/07/27 08:23:28;;;;;;;;;;;;;;;;;;2067372;28;19910;-88
2023/07/27 08:24:49;;;;;;;;;;;;;;;;;;2064273;28;19907;-85
2023/07/27 08:26:10;;;;;;;;;;;;;;;;;;2060732;28;20321;-87
2023/07/27 08:27:31;;;;;;;;;;;;;;;;;;2062690;28;20281;-88
2023/07/27 08:28:52;;;;;;;;;;;;;;;;;;2060257;28;19917;-85
2023/07/27 08:30:12;;;;;;;;;;;;;;;;;;2063329;28;19917;-85
2023/07/27 08:31:33;;;;;;;;;;;;;;;;;;2080606;28;19905;-83
2023/07/27 08:32:54;;;;;;;;;;;;;;;;;;2076439;28;19910;-83
2023/07/27 08:34:15;;;;;;;;;;;;;;;;;;2067440;28;19921;-83
2023/07/27 08:35:36;;;;;;;;;;;;;;;;;;2065006;28;20307;-85
2023/07/27 08:36:56;;;;;;;;;;;;;;;;;;2063696;28;19911;-86
2023/07/27 08:38:17;;;;;;;;;;;;;;;;;;2065388;28;20353;-87
2023/07/27 08:39:38;;;;;;;;;;;;;;;;;;2062295;28;19913;-87
2023/07/27 08:40:59;;;;;;;;;;;;;;;;;;2063031;28;19913;-83
2023/07/27 08:42:20;;;;;;;;;;;;;;;;;;2060307;28;20230;-86
2023/07/27 08:43:40;;;;;;;;;;;;;;;;;;2072524;28;20387;-87
2023/07/27 08:45:01;;;;;;;;;;;;;;;;;;2065815;28;19937;-87
2023/07/27 08:46:22;;;;;;;;;;;;;;;;;;2072948;28;19913;-84
2023/07/27 08:47:42;;;;;;;;;;;;;;;;;;2080963;28;20372;-85
2023/07/27 08:49:03;;;;;;;;;;;;;;;;;;2078207;28;19916;-83
2023/07/27 08:50:24;;;;;;;;;;;;;;;;;;2063945;28;20166;-82
2023/07/27 08:51:44;;;;;;;;;;;;;;;;;;2063542;28;19906;-82
2023/07/27 08:53:05;;;;;;;;;;;;;;;;;;2062062;28;19912;-82
2023/07/27 08:54:26;;;;;;;;;;;;;;;;;;2072231;28;19905;-81
2023/07/27 08:55:46;;;;;;;;;;;;;;;;;;2072338;28;19909;-82
2023/07/27 08:57:07;;;;;;;;;;;;;;;;;;2067768;28;20316;-82
2023/07/27 08:58:28;;;;;;;;;;;;;;;;;;2070691;28;19921;-83
2023/07/27 08:59:48;;;;;;;;;;;;;;;;;;2065991;28;20360;-84
2023/07/27 09:01:09;;;;;;;;;;;;;;;;;;2063474;28;19913;-84
2023/07/27 09:02:30;;;;;;;;;;;;;;;;;;2070785;28;19910;-86
2023/07/27 09:03:51;;;;;;;;;;;;;;;;;;2073122;28;20402;-83
2023/07/27 09:05:12;;;;;;;;;;;;;;;;;;2064353;28;20365;-85
2023/07/27 09:06:33;;;;;;;;;;;;;;;;;;2072608;28;19909;-84
2023/07/27 09:07:54;;;;;;;;;;;;;;;;;;2073048;28;20344;-83
2023/07/27 09:09:15;;;;;;;;;;;;;;;;;;2069381;28;19912;-83
2023/07/27 09:10:35;;;;;;;;;;;;;;;;;;2074319;28;19906;-84
2023/07/27 09:11:56;;;;;;;;;;;;;;;;;;2071977;28;19906;-84